createdAt,value
2024-03-20T00:03:48.499Z,101186.36
2024-03-20T00:08:51.372Z,101190.48
2024-03-20T00:13:54.460Z,101190.03
2024-03-20T00:18:58.588Z,101188.05
2024-03-20T00:24:01.899Z,101195.11
2024-03-20T00:29:04.917Z,101196.27
2024-03-20T00:34:07.855Z,101193.26
2024-03-20T00:39:10.909Z,101190.75
2024-03-20T00:44:14.012Z,101190.15
2024-03-20T00:49:17.116Z,101186.41
2024-03-20T00:54:20.185Z,101179.69
2024-03-20T00:59:23.636Z,101175.63
2024-03-20T01:04:26.539Z,101171.20
2024-03-20T01:09:29.551Z,101169.09
2024-03-20T01:14:32.546Z,101169.02
2024-03-20T01:19:35.680Z,101163.14
2024-03-20T01:24:38.856Z,101162.02
2024-03-20T01:29:42.486Z,101163.20
2024-03-20T01:34:45.586Z,101161.10
2024-03-20T01:39:48.494Z,101158.65
2024-03-20T01:44:52.511Z,101160.54
2024-03-20T01:49:55.269Z,101160.06
2024-03-20T01:54:58.520Z,101155.92
2024-03-20T02:00:01.744Z,101152.90
2024-03-20T02:05:05.008Z,101154.40
2024-03-20T02:10:08.770Z,101151.21
2024-03-20T02:15:11.787Z,101148.71
2024-03-20T02:20:15.067Z,101149.38
2024-03-20T02:25:18.181Z,101148.46
2024-03-20T02:30:23.089Z,101143.36
2024-03-20T02:35:26.242Z,101138.94
2024-03-20T02:40:29.847Z,101137.88
2024-03-20T02:45:32.856Z,101138.20
2024-03-20T02:50:35.752Z,101133.46
2024-03-20T02:55:42.952Z,101121.30
2024-03-20T03:00:46.318Z,101115.59
2024-03-20T03:05:49.469Z,101107.02
2024-03-20T03:10:52.685Z,101101.40
2024-03-20T03:15:55.997Z,101107.14
2024-03-20T03:20:59.198Z,101112.75
2024-03-20T03:26:02.204Z,101114.30
2024-03-20T03:31:05.098Z,101118.74
2024-03-20T03:36:08.428Z,101114.24
2024-03-20T03:41:14.053Z,101113.35
2024-03-20T03:46:18.411Z,101108.98
2024-03-20T03:51:21.515Z,101112.31
2024-03-20T03:56:24.560Z,101106.54
2024-03-20T04:01:27.526Z,101110.30
2024-03-20T04:06:30.621Z,101113.66
2024-03-20T04:11:33.846Z,101115.16
2024-03-20T04:16:37.879Z,101119.77
2024-03-20T04:21:42.018Z,101133.17
2024-03-20T04:26:44.896Z,101134.85
2024-03-20T04:31:47.892Z,101137.08
2024-03-20T04:36:50.914Z,101140.14
2024-03-20T04:41:53.909Z,101147.13
2024-03-20T04:46:56.811Z,101151.05
2024-03-20T04:52:00.116Z,101151.89
2024-03-20T04:57:04.254Z,101157.27
2024-03-20T05:02:07.363Z,101150.27
2024-03-20T05:07:10.566Z,101146.48
2024-03-20T05:12:13.570Z,101145.60
2024-03-20T05:17:16.476Z,101147.24
2024-03-20T05:22:19.676Z,101145.91
2024-03-20T05:27:22.684Z,101157.61
2024-03-20T05:32:25.736Z,101156.69
2024-03-20T05:37:28.684Z,101152.39
2024-03-20T05:42:31.804Z,101159.25
2024-03-20T05:47:34.798Z,101157.01
2024-03-20T05:52:37.908Z,101147.48
2024-03-20T05:57:41.122Z,101144.57
2024-03-20T06:02:44.225Z,101140.18
2024-03-20T06:07:47.420Z,101139.34
2024-03-20T06:12:50.425Z,101137.50
2024-03-20T06:17:54.452Z,101140.02
2024-03-20T06:22:57.289Z,101137.35
2024-03-20T06:28:00.256Z,101143.07
2024-03-20T06:33:04.178Z,101141.91
2024-03-20T06:38:12.606Z,101144.23
2024-03-20T06:43:15.613Z,101148.91
2024-03-20T06:48:22.503Z,101157.62
2024-03-20T06:53:25.825Z,101159.72
2024-03-20T06:58:29.022Z,101156.36
2024-03-20T07:03:32.099Z,101162.61
2024-03-20T07:08:35.143Z,101166.30
2024-03-20T07:13:38.134Z,101162.03
2024-03-20T07:18:40.990Z,101165.32
2024-03-20T07:23:43.941Z,101171.20
2024-03-20T07:28:47.047Z,101164.52
2024-03-20T07:33:49.913Z,101167.53
2024-03-20T07:38:53.281Z,101174.40
2024-03-20T07:43:56.442Z,101178.05
2024-03-20T07:48:59.488Z,101175.05
2024-03-20T07:54:02.445Z,101174.73
2024-03-20T07:59:05.232Z,101183.70
2024-03-20T08:04:08.069Z,101187.62
2024-03-20T08:09:10.885Z,101183.05
2024-03-20T08:14:14.839Z,101186.20
2024-03-20T08:19:17.766Z,101184.08
2024-03-20T08:24:20.690Z,101178.73
2024-03-20T08:29:23.645Z,101178.48
2024-03-20T08:34:27.183Z,101181.14
2024-03-20T08:39:30.046Z,101181.36
2024-03-20T08:44:32.867Z,101171.57
2024-03-20T08:49:38.469Z,101170.29
2024-03-20T08:54:45.126Z,101166.90
2024-03-20T08:59:48.868Z,101173.23
2024-03-20T09:04:51.612Z,101170.88
2024-03-20T09:09:54.332Z,101169.02
2024-03-20T09:14:57.186Z,101173.35
2024-03-20T09:20:00.014Z,101173.41
2024-03-20T09:25:03.724Z,101175.35
2024-03-20T09:30:07.512Z,101171.31
2024-03-20T09:35:16.688Z,101165.06
2024-03-20T09:40:23.743Z,101159.89
2024-03-20T09:45:27.071Z,101156.24
2024-03-20T09:50:30.907Z,101153.92
2024-03-20T09:55:36.062Z,101145.36
2024-03-20T10:00:38.848Z,101145.30
2024-03-20T10:05:42.225Z,101144.30
2024-03-20T10:10:46.159Z,101144.07
2024-03-20T10:15:48.926Z,101141.77
2024-03-20T10:20:52.331Z,101139.17
2024-03-20T10:25:58.080Z,101135.14
2024-03-20T10:31:09.568Z,101141.14
2024-03-20T10:36:19.178Z,101134.23
2024-03-20T10:41:21.927Z,101134.79
2024-03-20T10:46:24.871Z,101134.11
2024-03-20T10:51:27.640Z,101133.61
2024-03-20T10:56:30.749Z,101124.83
2024-03-20T11:01:35.089Z,101123.67
2024-03-20T11:06:40.934Z,101126.61
2024-03-20T11:11:44.950Z,101126.87
2024-03-20T11:16:49.905Z,101125.64
2024-03-20T11:21:54.541Z,101118.02
2024-03-20T11:26:57.949Z,101116.64
2024-03-20T11:32:00.848Z,101113.83
2024-03-20T11:37:03.641Z,101108.70
2024-03-20T11:42:06.675Z,101101.84
2024-03-20T11:47:17.401Z,101092.41
2024-03-20T11:52:21.258Z,101086.31
2024-03-20T11:57:24.677Z,101084.87
2024-03-20T12:02:34.341Z,101080.62
2024-03-20T12:07:43.789Z,101078.41
2024-03-20T12:12:46.618Z,101075.84
2024-03-20T12:17:52.354Z,101071.55
2024-03-20T12:22:55.357Z,101062.27
2024-03-20T12:27:58.563Z,101060.82
2024-03-20T12:33:01.360Z,101057.54
2024-03-20T12:38:04.366Z,101053.38
2024-03-20T12:43:08.368Z,101053.17
2024-03-20T12:48:12.216Z,101050.39
2024-03-20T12:53:18.778Z,101043.83
2024-03-20T12:58:21.942Z,101036.55
2024-03-20T13:03:26.444Z,101029.85
2024-03-20T13:08:29.655Z,101025.64
2024-03-20T13:13:32.653Z,101024.41
2024-03-20T13:18:37.712Z,101022.83
2024-03-20T13:23:43.787Z,101021.27
2024-03-20T13:28:50.779Z,101018.83
2024-03-20T13:33:54.395Z,101021.09
2024-03-20T13:39:13.078Z,101015.05
2024-03-20T13:44:25.184Z,101014.71
2024-03-20T13:49:28.706Z,101017.17
2024-03-20T13:54:31.711Z,101017.04
2024-03-20T13:59:35.012Z,101009.62
2024-03-20T14:04:39.365Z,101008.77
2024-03-20T14:09:42.568Z,101002.03
2024-03-20T14:14:46.063Z,100996.80
2024-03-20T14:19:49.381Z,100996.55
2024-03-20T14:24:52.803Z,100999.05
2024-03-20T14:29:55.686Z,100996.42
2024-03-20T14:35:11.234Z,100993.14
2024-03-20T14:40:19.851Z,100989.95
2024-03-20T14:45:23.368Z,100987.24
2024-03-20T14:50:26.661Z,100984.60
2024-03-20T14:55:30.310Z,100985.88
2024-03-20T15:00:33.309Z,100982.05
2024-03-20T15:05:36.302Z,100978.98
2024-03-20T15:10:39.520Z,100970.29
2024-03-20T15:15:42.631Z,100972.58
2024-03-20T15:20:47.908Z,100972.61
2024-03-20T15:25:55.195Z,100976.98
2024-03-20T15:30:59.418Z,100980.93
2024-03-20T15:36:02.545Z,100982.51
2024-03-20T15:41:28.777Z,100982.11
2024-03-20T15:46:31.679Z,100988.54
2024-03-20T15:51:35.652Z,100982.59
2024-03-20T15:56:39.020Z,100972.58
2024-03-20T16:01:41.909Z,100975.55
2024-03-20T16:06:45.835Z,100969.58
2024-03-20T16:11:49.144Z,100967.83
2024-03-20T16:16:52.990Z,100968.54
2024-03-20T16:21:56.528Z,100971.71
2024-03-20T16:26:59.597Z,100973.95
2024-03-20T16:32:03.220Z,100978.16
2024-03-20T16:37:06.944Z,100978.21
2024-03-20T16:42:10.144Z,100973.09
2024-03-20T16:47:14.266Z,100973.58
2024-03-20T16:52:17.265Z,100974.36
2024-03-20T16:57:22.209Z,100975.90
2024-03-20T17:02:26.654Z,100982.14
2024-03-20T17:07:29.654Z,100987.36
2024-03-20T17:12:33.373Z,100984.13
2024-03-20T17:17:36.583Z,100987.66
2024-03-20T17:22:40.809Z,100990.65
2024-03-20T17:27:44.531Z,100990.83
2024-03-20T17:32:47.534Z,100990.95
2024-03-20T17:37:51.808Z,100992.47
2024-03-20T17:42:55.088Z,100994.41
2024-03-20T17:47:59.207Z,100991.31
2024-03-20T17:53:02.075Z,100986.38
2024-03-20T17:58:05.125Z,100989.07
2024-03-20T18:03:08.383Z,100991.70
2024-03-20T18:08:13.397Z,100994.96
2024-03-20T18:13:19.564Z,100993.37
2024-03-20T18:18:23.637Z,100995.30
2024-03-20T18:23:28.122Z,100993.71
2024-03-20T18:28:31.427Z,100993.30
2024-03-20T18:33:35.037Z,100996.88
2024-03-20T18:38:38.365Z,100997.02
2024-03-20T18:43:41.462Z,100993.61
2024-03-20T18:48:45.310Z,100997.36
2024-03-20T18:53:48.912Z,100997.79
2024-03-20T18:58:54.398Z,100993.27
2024-03-20T19:03:58.726Z,100990.52
2024-03-20T19:09:02.315Z,100989.59
2024-03-20T19:14:07.991Z,100986.53
2024-03-20T19:19:11.502Z,100989.48
2024-03-20T19:24:14.607Z,100992.40
2024-03-20T19:29:19.617Z,100994.28
2024-03-20T19:34:23.731Z,100994.73
2024-03-20T19:39:27.874Z,100989.62
2024-03-20T19:44:31.180Z,100983.86
2024-03-20T19:49:35.815Z,100979.83
2024-03-20T19:54:45.507Z,100981.16
2024-03-20T19:59:48.623Z,100979.16
2024-03-20T20:04:51.782Z,100978.78
2024-03-20T20:09:56.189Z,100975.65
2024-03-20T20:14:59.564Z,100980.13
2024-03-20T20:20:08.855Z,100983.55
2024-03-20T20:25:15.368Z,100983.05
2024-03-20T20:30:19.576Z,100978.98
2024-03-20T20:35:24.115Z,100979.60
2024-03-20T20:40:28.501Z,100976.17
2024-03-20T20:45:31.898Z,100976.88
2024-03-20T20:50:39.299Z,100978.69
2024-03-20T20:55:43.546Z,100975.07
2024-03-20T21:00:47.623Z,100974.88
2024-03-20T21:06:09.328Z,100976.08
2024-03-20T21:11:35.432Z,100964.75
2024-03-20T21:16:57.411Z,100959.43
2024-03-20T21:22:01.480Z,100963.37
2024-03-20T21:27:06.579Z,100965.27
2024-03-20T21:32:12.846Z,100971.01
2024-03-20T21:37:17.781Z,100970.20
2024-03-20T21:42:21.838Z,100969.02
2024-03-20T21:47:26.824Z,100964.20
2024-03-20T21:52:30.518Z,100960.48
2024-03-20T21:57:33.710Z,100961.42
2024-03-20T22:02:37.797Z,100967.55
2024-03-20T22:07:42.290Z,100968.80
2024-03-20T22:12:46.304Z,100969.77
2024-03-20T22:17:50.334Z,100969.14
2024-03-20T22:22:56.111Z,100970.24
2024-03-20T22:27:59.205Z,100965.59
2024-03-20T22:33:02.661Z,100958.80
2024-03-20T22:38:08.839Z,100952.39
2024-03-20T22:43:14.135Z,100949.01
2024-03-20T22:48:17.878Z,100951.28
2024-03-20T22:53:22.113Z,100953.18
2024-03-20T22:58:25.008Z,100954.52
2024-03-20T23:03:28.434Z,100958.54
2024-03-20T23:08:34.298Z,100956.92
2024-03-20T23:13:37.733Z,100957.77
2024-03-20T23:18:40.814Z,100957.84
2024-03-20T23:23:43.821Z,100958.29
2024-03-20T23:28:46.988Z,100952.65
2024-03-20T23:33:50.434Z,100943.08
2024-03-20T23:38:53.342Z,100942.27
2024-03-20T23:43:56.443Z,100932.98
2024-03-20T23:48:59.442Z,100928.24
2024-03-20T23:54:02.583Z,100924.06
2024-03-20T23:59:06.069Z,100920.77
